Lafayette, MN (56054)

8:00 AM CST on January 22, 2018 (GMT -0600)
New Ulm Municipal | | Change Station
Active Advisory: Winter Storm Warning

Elev 1010 ft 44.32 °N, 94.50 °W | Updated 5 minutes ago

Snow
Snow
30 °F
Feels Like 18 °F
N
17
Wind Variable Wind from NNE
Gusts 24 mph

Today
High -- | Low -- °F
--% Chance of Precip.
Yesterday
High -- | Low -- °F
Precip. -- in
Pressure 29.72 in
Visibility 1.5 miles
Clouds Overcast 900 ft
Windchill 18 °F
Dew Point 28 °F
Humidity 93%
Rainfall 0.00 in
Snow Depth Not available.
7:45 AM 5:13 PM
Waxing Crescent, 26% visible
METAR KULM 221355Z AUTO 03015G21KT 1 1/2SM -SN OVC009 M01/M02 A2972 RMK AO2
Pressure 29.72 in
Visibility 1.5 miles
Clouds Overcast 900 ft
Windchill 18 °F
Dew Point 28 °F
Humidity 93%
Rainfall 0.00 in
Snow Depth Not available.
7:45 AM 5:13 PM
Waxing Crescent, 26% visible
METAR KULM 221355Z AUTO 03015G21KT 1 1/2SM -SN OVC009 M01/M02 A2972 RMK AO2

Get Your Daily Forecast Email!

Thanks for signing up!

Be on the lookout for a verification email in your inbox.

You'll start receiving severe weather alerts in your inbox..

×

10-Day Weather Forecast

Almanac

Astronomy

Jan. 22, 2018 Rise Set
Actual Time
Civil Twilight
Nautical Twilight
Astronomical Twilight
Moon
Length of Visible Light
Length of Day
Tomorrow will be .
, % of the Moon is Illuminated

Today's Extremes

State Highs State Lows

Community

WunderPhotos

Category 6

Welcome to Category 6. This is the collective home for Weather Underground's featured writeups by Dr. Jeff Masters (right), Bob Henson (left), Chris Burt, and other regular contributors.

Nearby

Air Quality

  Air Quality AQ Index Pollutant
Not available.

Snow Depth

Station Depth Elevation

Earthquake Activity

City Distance Mag. Time & Date
Minimum magnitude displayed is 2.5.

Coastal Water Temperatures

Place Temperature

Stations

Nearby Weather Stations

Station Location Temp. Windchill Dew Point Humidity Wind Precip. Elev Updated Type
                   

Watches & Warnings

Winter Storm Warning
Issued: 3:40 AM CST Jan. 22, 2018 – National Weather Service

... Winter Storm Warning remains in effect until midnight CST
tonight...

* what... heavy snow. Plan on difficult travel conditions,
including during the evening commute. Additional snow
accumulations of 6 to 12 inches, with localized amounts up to
13 inches, and ice accumulations of around one tenth are
expected.

* Where... Nicollet, Le Sueur, Waseca, Steele and Freeborn
counties.

* When... until midnight CST tonight.

* Additional details... winds gusting as high as 35 mph will
cause patchy blowing and drifting snow.

Precautionary/preparedness actions...

A Winter Storm Warning means significant amounts of snow, sleet
and ice are occurring. This will make travel very hazardous or
impossible. The latest Road conditions for Minnesota can be found
at 511mn.Org and for Wisconsin at 511wi.Gov, or by calling
5 1 1 in either state.